sensor_id;sensor_type;location;lat;lon;timestamp;P1;durP1;ratioP1;P2;durP2;ratioP2
39452;SDS011;25154;-33.684;151.102;2023-02-28T00:03:09;4.75;;;1.50;;
39452;SDS011;25154;-33.684;151.102;2023-02-28T00:08:11;9.80;;;1.70;;
39452;SDS011;25154;-33.684;151.102;2023-02-28T00:13:13;7.20;;;1.55;;
39452;SDS011;25154;-33.684;151.102;2023-02-28T00:18:17;4.07;;;1.75;;
39452;SDS011;25154;-33.684;151.102;2023-02-28T00:23:20;5.25;;;1.38;;
39452;SDS011;25154;-33.684;151.102;2023-02-28T00:28:23;3.55;;;1.10;;
39452;SDS011;25154;-33.684;151.102;2023-02-28T00:33:26;3.72;;;1.13;;
39452;SDS011;25154;-33.684;151.102;2023-02-28T00:38:28;4.95;;;1.30;;
39452;SDS011;25154;-33.684;151.102;2023-02-28T00:43:34;4.32;;;1.08;;
39452;SDS011;25154;-33.684;151.102;2023-02-28T00:48:38;4.13;;;1.10;;
39452;SDS011;25154;-33.684;151.102;2023-02-28T00:53:40;4.30;;;3.30;;
39452;SDS011;25154;-33.684;151.102;2023-02-28T00:58:43;2.83;;;1.10;;
39452;SDS011;25154;-33.684;151.102;2023-02-28T01:03:45;3.97;;;1.20;;
39452;SDS011;25154;-33.684;151.102;2023-02-28T01:08:48;5.47;;;1.30;;
39452;SDS011;25154;-33.684;151.102;2023-02-28T01:13:51;3.20;;;1.35;;
39452;SDS011;25154;-33.684;151.102;2023-02-28T01:18:53;3.92;;;1.20;;
39452;SDS011;25154;-33.684;151.102;2023-02-28T01:23:57;4.30;;;1.10;;
39452;SDS011;25154;-33.684;151.102;2023-02-28T01:29:00;3.40;;;1.00;;
39452;SDS011;25154;-33.684;151.102;2023-02-28T01:34:03;7.57;;;1.42;;
39452;SDS011;25154;-33.684;151.102;2023-02-28T01:39:09;7.25;;;2.80;;
39452;SDS011;25154;-33.684;151.102;2023-02-28T01:49:52;2.85;;;1.20;;
39452;SDS011;25154;-33.684;151.102;2023-02-28T01:54:55;4.18;;;1.40;;
39452;SDS011;25154;-33.684;151.102;2023-02-28T02:00:02;5.03;;;1.25;;
39452;SDS011;25154;-33.684;151.102;2023-02-28T02:05:18;4.68;;;1.42;;
39452;SDS011;25154;-33.684;151.102;2023-02-28T02:48:02;3.28;;;1.10;;
39452;SDS011;25154;-33.684;151.102;2023-02-28T02:53:07;3.25;;;1.00;;
39452;SDS011;25154;-33.684;151.102;2023-02-28T02:58:13;3.60;;;1.63;;
39452;SDS011;25154;-33.684;151.102;2023-02-28T03:03:18;3.13;;;1.80;;
39452;SDS011;25154;-33.684;151.102;2023-02-28T03:08:33;6.57;;;1.00;;
39452;SDS011;25154;-33.684;151.102;2023-02-28T03:13:50;3.70;;;0.90;;
39452;SDS011;25154;-33.684;151.102;2023-02-28T03:19:17;3.57;;;0.97;;
39452;SDS011;25154;-33.684;151.102;2023-02-28T03:29:42;3.30;;;1.17;;
39452;SDS011;25154;-33.684;151.102;2023-02-28T03:35:02;3.47;;;1.02;;
39452;SDS011;25154;-33.684;151.102;2023-02-28T03:40:25;3.58;;;1.00;;
39452;SDS011;25154;-33.684;151.102;2023-02-28T03:45:34;4.20;;;0.85;;
39452;SDS011;25154;-33.684;151.102;2023-02-28T03:50:41;151.52;;;20.02;;
39452;SDS011;25154;-33.684;151.102;2023-02-28T03:56:09;3.35;;;1.35;;
39452;SDS011;25154;-33.684;151.102;2023-02-28T04:01:16;3.45;;;1.00;;
39452;SDS011;25154;-33.684;151.102;2023-02-28T04:06:33;5.82;;;1.20;;
39452;SDS011;25154;-33.684;151.102;2023-02-28T04:11:40;3.17;;;1.40;;
39452;SDS011;25154;-33.684;151.102;2023-02-28T04:16:42;127.10;;;7.07;;
39452;SDS011;25154;-33.684;151.102;2023-02-28T04:21:49;3.72;;;0.93;;
39452;SDS011;25154;-33.684;151.102;2023-02-28T04:26:54;3.55;;;0.82;;
39452;SDS011;25154;-33.684;151.102;2023-02-28T04:31:58;2.70;;;1.13;;
39452;SDS011;25154;-33.684;151.102;2023-02-28T04:37:02;5.25;;;1.20;;
39452;SDS011;25154;-33.684;151.102;2023-02-28T04:42:05;1.42;;;1.00;;
39452;SDS011;25154;-33.684;151.102;2023-02-28T04:47:08;3.08;;;1.13;;
39452;SDS011;25154;-33.684;151.102;2023-02-28T04:52:11;4.13;;;2.35;;
39452;SDS011;25154;-33.684;151.102;2023-02-28T04:57:13;3.88;;;1.25;;
39452;SDS011;25154;-33.684;151.102;2023-02-28T05:02:16;4.15;;;1.38;;
39452;SDS011;25154;-33.684;151.102;2023-02-28T05:07:18;3.63;;;1.10;;
39452;SDS011;25154;-33.684;151.102;2023-02-28T05:12:20;4.53;;;1.20;;
39452;SDS011;25154;-33.684;151.102;2023-02-28T05:17:23;4.38;;;1.63;;
39452;SDS011;25154;-33.684;151.102;2023-02-28T05:22:25;4.60;;;1.13;;
39452;SDS011;25154;-33.684;151.102;2023-02-28T05:27:28;6.65;;;1.35;;
39452;SDS011;25154;-33.684;151.102;2023-02-28T05:32:31;2.70;;;1.10;;
39452;SDS011;25154;-33.684;151.102;2023-02-28T05:37:33;4.05;;;1.40;;
39452;SDS011;25154;-33.684;151.102;2023-02-28T05:42:37;3.33;;;1.20;;
39452;SDS011;25154;-33.684;151.102;2023-02-28T05:47:40;3.25;;;1.20;;
39452;SDS011;25154;-33.684;151.102;2023-02-28T05:52:43;4.65;;;2.38;;
39452;SDS011;25154;-33.684;151.102;2023-02-28T05:57:46;4.68;;;1.33;;
39452;SDS011;25154;-33.684;151.102;2023-02-28T06:02:48;3.72;;;1.38;;
39452;SDS011;25154;-33.684;151.102;2023-02-28T06:07:54;4.20;;;1.52;;
39452;SDS011;25154;-33.684;151.102;2023-02-28T06:12:59;3.92;;;1.48;;
39452;SDS011;25154;-33.684;151.102;2023-02-28T06:18:03;3.25;;;1.23;;
39452;SDS011;25154;-33.684;151.102;2023-02-28T06:23:06;4.30;;;1.27;;
39452;SDS011;25154;-33.684;151.102;2023-02-28T06:28:09;4.25;;;1.30;;
39452;SDS011;25154;-33.684;151.102;2023-02-28T06:33:12;4.68;;;1.67;;
39452;SDS011;25154;-33.684;151.102;2023-02-28T06:38:18;4.37;;;1.10;;
39452;SDS011;25154;-33.684;151.102;2023-02-28T06:43:23;3.92;;;1.25;;
39452;SDS011;25154;-33.684;151.102;2023-02-28T06:48:26;2.47;;;1.00;;
39452;SDS011;25154;-33.684;151.102;2023-02-28T06:53:36;6.55;;;1.58;;
39452;SDS011;25154;-33.684;151.102;2023-02-28T06:58:39;3.60;;;1.50;;
39452;SDS011;25154;-33.684;151.102;2023-02-28T07:03:42;3.92;;;1.55;;
39452;SDS011;25154;-33.684;151.102;2023-02-28T07:08:45;4.07;;;1.27;;
39452;SDS011;25154;-33.684;151.102;2023-02-28T07:13:49;3.83;;;1.45;;
39452;SDS011;25154;-33.684;151.102;2023-02-28T07:18:53;4.10;;;1.00;;
39452;SDS011;25154;-33.684;151.102;2023-02-28T07:23:56;5.85;;;1.73;;
39452;SDS011;25154;-33.684;151.102;2023-02-28T07:28:59;4.45;;;1.35;;
39452;SDS011;25154;-33.684;151.102;2023-02-28T07:34:03;3.47;;;1.27;;
39452;SDS011;25154;-33.684;151.102;2023-02-28T07:39:06;3.78;;;1.10;;
39452;SDS011;25154;-33.684;151.102;2023-02-28T07:44:11;4.50;;;1.05;;
39452;SDS011;25154;-33.684;151.102;2023-02-28T07:49:13;4.50;;;1.30;;
39452;SDS011;25154;-33.684;151.102;2023-02-28T07:54:15;7.57;;;1.60;;
39452;SDS011;25154;-33.684;151.102;2023-02-28T07:59:18;6.47;;;1.45;;
39452;SDS011;25154;-33.684;151.102;2023-02-28T08:04:20;7.15;;;1.50;;
39452;SDS011;25154;-33.684;151.102;2023-02-28T08:09:25;4.50;;;1.25;;
39452;SDS011;25154;-33.684;151.102;2023-02-28T08:14:28;5.35;;;1.60;;
39452;SDS011;25154;-33.684;151.102;2023-02-28T08:19:30;4.93;;;1.67;;
39452;SDS011;25154;-33.684;151.102;2023-02-28T08:24:33;3.80;;;1.20;;
39452;SDS011;25154;-33.684;151.102;2023-02-28T08:29:38;7.70;;;1.40;;
39452;SDS011;25154;-33.684;151.102;2023-02-28T08:34:41;5.13;;;1.55;;
39452;SDS011;25154;-33.684;151.102;2023-02-28T08:39:46;5.90;;;1.50;;
39452;SDS011;25154;-33.684;151.102;2023-02-28T08:44:55;5.43;;;1.60;;
39452;SDS011;25154;-33.684;151.102;2023-02-28T08:49:57;7.07;;;1.60;;
39452;SDS011;25154;-33.684;151.102;2023-02-28T08:55:00;9.55;;;2.10;;
39452;SDS011;25154;-33.684;151.102;2023-02-28T09:00:02;4.45;;;1.80;;
39452;SDS011;25154;-33.684;151.102;2023-02-28T09:05:05;7.82;;;1.95;;
39452;SDS011;25154;-33.684;151.102;2023-02-28T09:10:09;190.40;;;31.60;;
39452;SDS011;25154;-33.684;151.102;2023-02-28T09:15:12;37.05;;;11.55;;
39452;SDS011;25154;-33.684;151.102;2023-02-28T09:20:14;8.27;;;2.05;;
39452;SDS011;25154;-33.684;151.102;2023-02-28T09:25:17;7.43;;;2.35;;
39452;SDS011;25154;-33.684;151.102;2023-02-28T09:30:19;9.25;;;2.20;;
39452;SDS011;25154;-33.684;151.102;2023-02-28T09:35:22;7.05;;;1.92;;
39452;SDS011;25154;-33.684;151.102;2023-02-28T09:40:25;4.43;;;1.60;;
39452;SDS011;25154;-33.684;151.102;2023-02-28T09:50:55;8.20;;;1.80;;
39452;SDS011;25154;-33.684;151.102;2023-02-28T10:06:57;7.10;;;1.70;;
39452;SDS011;25154;-33.684;151.102;2023-02-28T10:12:01;3.75;;;1.60;;
39452;SDS011;25154;-33.684;151.102;2023-02-28T10:17:14;7.43;;;2.73;;
39452;SDS011;25154;-33.684;151.102;2023-02-28T10:22:22;9.27;;;1.80;;
39452;SDS011;25154;-33.684;151.102;2023-02-28T10:27:39;5.25;;;2.10;;
39452;SDS011;25154;-33.684;151.102;2023-02-28T10:32:45;93.45;;;10.45;;
39452;SDS011;25154;-33.684;151.102;2023-02-28T10:37:57;7.72;;;2.30;;
39452;SDS011;25154;-33.684;151.102;2023-02-28T10:53:28;5.75;;;1.88;;
39452;SDS011;25154;-33.684;151.102;2023-02-28T11:04:02;8.75;;;2.70;;
39452;SDS011;25154;-33.684;151.102;2023-02-28T11:09:27;8.23;;;3.13;;
39452;SDS011;25154;-33.684;151.102;2023-02-28T11:14:40;6.25;;;1.98;;
39452;SDS011;25154;-33.684;151.102;2023-02-28T11:19:54;7.40;;;1.98;;
39452;SDS011;25154;-33.684;151.102;2023-02-28T11:24:59;6.70;;;2.20;;
39452;SDS011;25154;-33.684;151.102;2023-02-28T11:30:25;6.90;;;2.10;;
39452;SDS011;25154;-33.684;151.102;2023-02-28T11:35:31;5.88;;;2.13;;
39452;SDS011;25154;-33.684;151.102;2023-02-28T11:46:07;7.65;;;2.72;;
39452;SDS011;25154;-33.684;151.102;2023-02-28T11:51:35;7.45;;;2.15;;
39452;SDS011;25154;-33.684;151.102;2023-02-28T11:57:03;9.48;;;2.13;;
39452;SDS011;25154;-33.684;151.102;2023-02-28T12:02:28;6.05;;;2.10;;
39452;SDS011;25154;-33.684;151.102;2023-02-28T12:08:06;6.67;;;2.23;;
39452;SDS011;25154;-33.684;151.102;2023-02-28T12:25:08;9.50;;;2.78;;
39452;SDS011;25154;-33.684;151.102;2023-02-28T12:29:43;10.88;;;2.25;;
39452;SDS011;25154;-33.684;151.102;2023-02-28T12:35:00;8.88;;;2.15;;
39452;SDS011;25154;-33.684;151.102;2023-02-28T12:40:26;8.45;;;2.70;;
39452;SDS011;25154;-33.684;151.102;2023-02-28T12:45:48;11.13;;;2.67;;
39452;SDS011;25154;-33.684;151.102;2023-02-28T12:50:57;5.30;;;2.60;;
39452;SDS011;25154;-33.684;151.102;2023-02-28T13:12:30;7.10;;;2.30;;
39452;SDS011;25154;-33.684;151.102;2023-02-28T13:17:35;6.60;;;2.38;;
39452;SDS011;25154;-33.684;151.102;2023-02-28T13:22:53;6.28;;;2.30;;
39452;SDS011;25154;-33.684;151.102;2023-02-28T13:27:56;10.98;;;2.45;;
39452;SDS011;25154;-33.684;151.102;2023-02-28T13:38:35;9.45;;;2.25;;
39452;SDS011;25154;-33.684;151.102;2023-02-28T13:59:56;6.13;;;2.13;;
39452;SDS011;25154;-33.684;151.102;2023-02-28T14:05:10;7.82;;;3.08;;
39452;SDS011;25154;-33.684;151.102;2023-02-28T14:10:21;9.48;;;2.80;;
39452;SDS011;25154;-33.684;151.102;2023-02-28T14:20:54;7.30;;;2.97;;
39452;SDS011;25154;-33.684;151.102;2023-02-28T14:31:38;9.48;;;2.92;;
39452;SDS011;25154;-33.684;151.102;2023-02-28T14:37:01;9.38;;;3.95;;
39452;SDS011;25154;-33.684;151.102;2023-02-28T14:42:46;8.75;;;3.60;;
39452;SDS011;25154;-33.684;151.102;2023-02-28T14:47:56;9.00;;;2.72;;
39452;SDS011;25154;-33.684;151.102;2023-02-28T14:52:59;13.65;;;4.53;;
39452;SDS011;25154;-33.684;151.102;2023-02-28T14:58:03;10.55;;;4.93;;
39452;SDS011;25154;-33.684;151.102;2023-02-28T15:03:50;9.07;;;3.58;;
39452;SDS011;25154;-33.684;151.102;2023-02-28T15:08:34;16.13;;;4.07;;
39452;SDS011;25154;-33.684;151.102;2023-02-28T15:13:38;10.63;;;3.70;;
39452;SDS011;25154;-33.684;151.102;2023-02-28T15:18:50;10.65;;;3.88;;
39452;SDS011;25154;-33.684;151.102;2023-02-28T15:24:07;8.13;;;3.58;;
39452;SDS011;25154;-33.684;151.102;2023-02-28T15:29:25;9.13;;;3.25;;
39452;SDS011;25154;-33.684;151.102;2023-02-28T15:34:36;7.10;;;3.30;;
39452;SDS011;25154;-33.684;151.102;2023-02-28T15:39:44;7.50;;;3.22;;
39452;SDS011;25154;-33.684;151.102;2023-02-28T15:44:48;12.75;;;2.97;;
39452;SDS011;25154;-33.684;151.102;2023-02-28T15:50:01;10.60;;;3.03;;
39452;SDS011;25154;-33.684;151.102;2023-02-28T15:55:08;8.90;;;3.55;;
39452;SDS011;25154;-33.684;151.102;2023-02-28T16:00:25;8.70;;;3.20;;
39452;SDS011;25154;-33.684;151.102;2023-02-28T16:05:34;9.18;;;3.13;;
39452;SDS011;25154;-33.684;151.102;2023-02-28T16:10:36;9.18;;;3.10;;
39452;SDS011;25154;-33.684;151.102;2023-02-28T16:15:41;8.93;;;3.63;;
39452;SDS011;25154;-33.684;151.102;2023-02-28T16:20:44;12.80;;;4.13;;
39452;SDS011;25154;-33.684;151.102;2023-02-28T16:25:47;6.13;;;3.20;;
39452;SDS011;25154;-33.684;151.102;2023-02-28T16:30:53;5.97;;;3.22;;
39452;SDS011;25154;-33.684;151.102;2023-02-28T16:35:55;6.28;;;2.85;;
39452;SDS011;25154;-33.684;151.102;2023-02-28T16:40:59;8.75;;;3.33;;
39452;SDS011;25154;-33.684;151.102;2023-02-28T16:46:01;8.68;;;3.35;;
39452;SDS011;25154;-33.684;151.102;2023-02-28T16:51:04;7.25;;;2.85;;
39452;SDS011;25154;-33.684;151.102;2023-02-28T16:56:09;10.77;;;3.30;;
39452;SDS011;25154;-33.684;151.102;2023-02-28T17:01:19;10.25;;;3.50;;
39452;SDS011;25154;-33.684;151.102;2023-02-28T17:06:23;10.05;;;3.75;;
39452;SDS011;25154;-33.684;151.102;2023-02-28T17:11:28;11.02;;;4.28;;
39452;SDS011;25154;-33.684;151.102;2023-02-28T17:16:32;8.50;;;5.10;;
39452;SDS011;25154;-33.684;151.102;2023-02-28T17:21:36;11.17;;;5.57;;
39452;SDS011;25154;-33.684;151.102;2023-02-28T17:26:40;14.88;;;7.82;;
39452;SDS011;25154;-33.684;151.102;2023-02-28T17:31:43;11.10;;;6.80;;
39452;SDS011;25154;-33.684;151.102;2023-02-28T17:36:46;17.80;;;7.63;;
39452;SDS011;25154;-33.684;151.102;2023-02-28T17:41:53;16.02;;;10.38;;
39452;SDS011;25154;-33.684;151.102;2023-02-28T17:46:56;16.58;;;9.45;;
39452;SDS011;25154;-33.684;151.102;2023-02-28T17:51:59;17.77;;;10.90;;
39452;SDS011;25154;-33.684;151.102;2023-02-28T17:57:02;19.50;;;12.18;;
39452;SDS011;25154;-33.684;151.102;2023-02-28T18:02:04;17.92;;;11.65;;
39452;SDS011;25154;-33.684;151.102;2023-02-28T18:07:08;19.88;;;11.32;;
39452;SDS011;25154;-33.684;151.102;2023-02-28T18:12:12;19.30;;;11.32;;
39452;SDS011;25154;-33.684;151.102;2023-02-28T18:17:14;19.33;;;11.63;;
39452;SDS011;25154;-33.684;151.102;2023-02-28T18:22:16;20.30;;;12.63;;
39452;SDS011;25154;-33.684;151.102;2023-02-28T18:27:19;22.33;;;12.10;;
39452;SDS011;25154;-33.684;151.102;2023-02-28T18:32:21;17.67;;;11.20;;
39452;SDS011;25154;-33.684;151.102;2023-02-28T18:37:23;22.27;;;12.75;;
39452;SDS011;25154;-33.684;151.102;2023-02-28T18:42:32;23.38;;;12.57;;
39452;SDS011;25154;-33.684;151.102;2023-02-28T18:47:34;25.30;;;12.60;;
39452;SDS011;25154;-33.684;151.102;2023-02-28T18:52:37;21.25;;;13.70;;
39452;SDS011;25154;-33.684;151.102;2023-02-28T18:57:40;24.02;;;13.25;;
39452;SDS011;25154;-33.684;151.102;2023-02-28T19:02:42;27.27;;;12.43;;
39452;SDS011;25154;-33.684;151.102;2023-02-28T19:07:45;25.25;;;13.35;;
39452;SDS011;25154;-33.684;151.102;2023-02-28T19:12:48;27.08;;;14.15;;
39452;SDS011;25154;-33.684;151.102;2023-02-28T19:17:50;25.42;;;13.52;;
39452;SDS011;25154;-33.684;151.102;2023-02-28T19:22:52;24.05;;;13.30;;
39452;SDS011;25154;-33.684;151.102;2023-02-28T19:27:54;27.55;;;13.93;;
39452;SDS011;25154;-33.684;151.102;2023-02-28T19:32:57;23.80;;;13.27;;
39452;SDS011;25154;-33.684;151.102;2023-02-28T19:37:59;23.80;;;12.02;;
39452;SDS011;25154;-33.684;151.102;2023-02-28T19:43:02;54.97;;;19.55;;
39452;SDS011;25154;-33.684;151.102;2023-02-28T19:48:04;28.00;;;14.95;;
39452;SDS011;25154;-33.684;151.102;2023-02-28T19:53:09;27.27;;;14.40;;
39452;SDS011;25154;-33.684;151.102;2023-02-28T19:58:11;27.10;;;14.82;;
39452;SDS011;25154;-33.684;151.102;2023-02-28T20:03:14;26.20;;;13.40;;
39452;SDS011;25154;-33.684;151.102;2023-02-28T20:08:18;25.52;;;13.52;;
39452;SDS011;25154;-33.684;151.102;2023-02-28T20:13:20;27.88;;;15.00;;
39452;SDS011;25154;-33.684;151.102;2023-02-28T20:18:24;26.95;;;14.73;;
39452;SDS011;25154;-33.684;151.102;2023-02-28T20:23:26;28.13;;;15.63;;
39452;SDS011;25154;-33.684;151.102;2023-02-28T20:28:29;24.08;;;12.95;;
39452;SDS011;25154;-33.684;151.102;2023-02-28T20:33:32;27.80;;;13.10;;
39452;SDS011;25154;-33.684;151.102;2023-02-28T20:38:34;29.40;;;13.45;;
39452;SDS011;25154;-33.684;151.102;2023-02-28T20:43:37;26.40;;;13.02;;
39452;SDS011;25154;-33.684;151.102;2023-02-28T20:48:40;32.42;;;14.35;;
39452;SDS011;25154;-33.684;151.102;2023-02-28T20:53:42;35.20;;;15.02;;
39452;SDS011;25154;-33.684;151.102;2023-02-28T20:58:46;30.02;;;11.95;;
39452;SDS011;25154;-33.684;151.102;2023-02-28T21:03:52;28.25;;;12.40;;
39452;SDS011;25154;-33.684;151.102;2023-02-28T21:08:57;25.95;;;12.48;;
39452;SDS011;25154;-33.684;151.102;2023-02-28T21:14:04;26.70;;;11.57;;
39452;SDS011;25154;-33.684;151.102;2023-02-28T21:19:09;27.35;;;12.45;;
39452;SDS011;25154;-33.684;151.102;2023-02-28T21:24:13;21.63;;;12.35;;
39452;SDS011;25154;-33.684;151.102;2023-02-28T21:29:17;23.98;;;12.32;;
39452;SDS011;25154;-33.684;151.102;2023-02-28T21:34:19;20.13;;;10.95;;
39452;SDS011;25154;-33.684;151.102;2023-02-28T21:39:23;23.88;;;11.60;;
39452;SDS011;25154;-33.684;151.102;2023-02-28T21:44:29;22.45;;;10.40;;
39452;SDS011;25154;-33.684;151.102;2023-02-28T21:49:33;19.77;;;10.70;;
39452;SDS011;25154;-33.684;151.102;2023-02-28T21:54:38;13.95;;;8.77;;
39452;SDS011;25154;-33.684;151.102;2023-02-28T21:59:41;15.20;;;9.43;;
39452;SDS011;25154;-33.684;151.102;2023-02-28T22:04:43;16.02;;;7.50;;
39452;SDS011;25154;-33.684;151.102;2023-02-28T22:09:46;13.63;;;8.52;;
39452;SDS011;25154;-33.684;151.102;2023-02-28T22:14:48;9.25;;;6.85;;
39452;SDS011;25154;-33.684;151.102;2023-02-28T22:19:50;10.13;;;6.20;;
39452;SDS011;25154;-33.684;151.102;2023-02-28T22:24:53;10.82;;;6.78;;
39452;SDS011;25154;-33.684;151.102;2023-02-28T22:29:55;8.48;;;5.85;;
39452;SDS011;25154;-33.684;151.102;2023-02-28T22:34:59;9.20;;;5.97;;
39452;SDS011;25154;-33.684;151.102;2023-02-28T22:40:02;9.82;;;5.25;;
39452;SDS011;25154;-33.684;151.102;2023-02-28T22:45:05;10.43;;;4.90;;
39452;SDS011;25154;-33.684;151.102;2023-02-28T22:50:08;10.43;;;5.20;;
39452;SDS011;25154;-33.684;151.102;2023-02-28T22:55:11;7.75;;;4.60;;
39452;SDS011;25154;-33.684;151.102;2023-02-28T23:00:13;7.75;;;4.18;;
39452;SDS011;25154;-33.684;151.102;2023-02-28T23:05:16;6.50;;;3.55;;
39452;SDS011;25154;-33.684;151.102;2023-02-28T23:10:18;6.35;;;3.75;;
39452;SDS011;25154;-33.684;151.102;2023-02-28T23:15:21;5.88;;;2.80;;
39452;SDS011;25154;-33.684;151.102;2023-02-28T23:20:24;4.72;;;3.00;;
39452;SDS011;25154;-33.684;151.102;2023-02-28T23:25:26;6.35;;;2.80;;
39452;SDS011;25154;-33.684;151.102;2023-02-28T23:30:30;4.38;;;2.30;;
39452;SDS011;25154;-33.684;151.102;2023-02-28T23:35:33;4.68;;;2.70;;
39452;SDS011;25154;-33.684;151.102;2023-02-28T23:40:36;5.35;;;2.25;;
39452;SDS011;25154;-33.684;151.102;2023-02-28T23:45:40;4.47;;;1.60;;
39452;SDS011;25154;-33.684;151.102;2023-02-28T23:50:46;4.25;;;2.40;;
39452;SDS011;25154;-33.684;151.102;2023-02-28T23:55:49;4.38;;;2.40;;
